N51236 KIMS-KLOU
Flight info
| Callsign | N51236 |
|---|---|
| Flight time | N/A |
| Altitude | 8500 |
| Route | KFRH KEVV |
| Aircraft | BE58/L-VGDW/C |
Departure
| Time | 2026-05-06 17:39 |
|---|---|
| Airport | Madison Municipal Airport (KIMS) |
Arrival
| Time | N/A |
|---|---|
| Airport | Bowman Field (KLOU) |
| Time | Latitude | Longitude | Altitude | Speed | Heading |
|---|---|---|---|---|---|
| 2026-05-06 17:34 | 38.75975 | -85.46297 | 815 ft | 0 kts | 313° |
| 2026-05-06 17:37 | 38.76036 | -85.46268 | 816 ft | 18 kts | 31° |
| 2026-05-06 17:37 | 38.76077 | -85.46307 | 816 ft | 5 kts | 287° |
| 2026-05-06 17:38 | 38.76100 | -85.46362 | 815 ft | 9 kts | 301° |
| 2026-05-06 17:38 | 38.76088 | -85.46394 | 814 ft | 1 kts | 211° |
| 2026-05-06 17:38 | 38.76054 | -85.46420 | 814 ft | 10 kts | 212° |
| 2026-05-06 17:38 | 38.75794 | -85.46625 | 812 ft | 93 kts | 213° |
| 2026-05-06 17:39 | 38.75098 | -85.47173 | 959 ft | 136 kts | 211° |
| 2026-05-06 17:39 | 38.74156 | -85.47695 | 1144 ft | 153 kts | 206° |
| 2026-05-06 17:39 | 38.73181 | -85.48317 | 1371 ft | 159 kts | 223° |
| 2026-05-06 17:39 | 38.72742 | -85.49511 | 1578 ft | 150 kts | 277° |
| 2026-05-06 17:40 | 38.73274 | -85.50584 | 1820 ft | 147 kts | 333° |
| 2026-05-06 17:40 | 38.74264 | -85.50976 | 2030 ft | 152 kts | 329° |
| 2026-05-06 17:40 | 38.74819 | -85.52124 | 2241 ft | 165 kts | 284° |
| 2026-05-06 17:40 | 38.74850 | -85.53630 | 2469 ft | 175 kts | 266° |
| 2026-05-06 17:41 | 38.74576 | -85.55169 | 2678 ft | 183 kts | 257° |
| 2026-05-06 17:41 | 38.74210 | -85.56778 | 2902 ft | 188 kts | 257° |
| 2026-05-06 17:41 | 38.73858 | -85.58378 | 3101 ft | 190 kts | 258° |
| 2026-05-06 17:41 | 38.73505 | -85.60012 | 3308 ft | 191 kts | 257° |
| 2026-05-06 17:42 | 38.73150 | -85.61659 | 3516 ft | 192 kts | 257° |
| 2026-05-06 17:42 | 38.72792 | -85.63315 | 3718 ft | 193 kts | 258° |
| 2026-05-06 17:42 | 38.72436 | -85.64965 | 3925 ft | 192 kts | 257° |
| 2026-05-06 17:42 | 38.72079 | -85.66617 | 4128 ft | 192 kts | 258° |
| 2026-05-06 17:43 | 38.71722 | -85.68264 | 4334 ft | 192 kts | 258° |
| 2026-05-06 17:43 | 38.71366 | -85.69911 | 4545 ft | 192 kts | 257° |
| 2026-05-06 17:43 | 38.71010 | -85.71559 | 4752 ft | 192 kts | 257° |
| 2026-05-06 17:43 | 38.70653 | -85.73201 | 4962 ft | 190 kts | 257° |
| 2026-05-06 17:44 | 38.70300 | -85.74826 | 5156 ft | 189 kts | 256° |
| 2026-05-06 17:44 | 38.69949 | -85.76440 | 5359 ft | 187 kts | 256° |
| 2026-05-06 17:44 | 38.69604 | -85.78034 | 5555 ft | 185 kts | 256° |
| 2026-05-06 17:44 | 38.69259 | -85.79620 | 5762 ft | 184 kts | 255° |
| 2026-05-06 17:45 | 38.68916 | -85.81197 | 5966 ft | 184 kts | 255° |
| 2026-05-06 17:45 | 38.68572 | -85.82773 | 6172 ft | 183 kts | 255° |
| 2026-05-06 17:45 | 38.68231 | -85.84339 | 6386 ft | 182 kts | 255° |
| 2026-05-06 17:45 | 38.67891 | -85.85894 | 6574 ft | 181 kts | 254° |
| 2026-05-06 17:46 | 38.67555 | -85.87440 | 6761 ft | 180 kts | 255° |
| 2026-05-06 17:46 | 38.67218 | -85.88982 | 6951 ft | 179 kts | 254° |
| 2026-05-06 17:46 | 38.66884 | -85.90512 | 7143 ft | 178 kts | 254° |
| 2026-05-06 17:46 | 38.66551 | -85.92033 | 7342 ft | 177 kts | 254° |
| 2026-05-06 17:47 | 38.66221 | -85.93543 | 7536 ft | 176 kts | 254° |
| 2026-05-06 17:47 | 38.65890 | -85.95052 | 7734 ft | 175 kts | 254° |
| 2026-05-06 17:47 | 38.65563 | -85.96545 | 7930 ft | 173 kts | 254° |
| 2026-05-06 17:47 | 38.65240 | -85.98021 | 8132 ft | 171 kts | 254° |
| 2026-05-06 17:48 | 38.64917 | -85.99490 | 8337 ft | 172 kts | 254° |
| 2026-05-06 17:48 | 38.64593 | -86.00964 | 8467 ft | 175 kts | 254° |
| 2026-05-06 17:48 | 38.64259 | -86.02489 | 8476 ft | 181 kts | 254° |
| 2026-05-06 17:48 | 38.63915 | -86.04059 | 8481 ft | 185 kts | 254° |
| 2026-05-06 17:49 | 38.63572 | -86.05635 | 8475 ft | 187 kts | 254° |
| 2026-05-06 17:49 | 38.63215 | -86.07239 | 8478 ft | 188 kts | 254° |
| 2026-05-06 17:49 | 38.62858 | -86.08849 | 8481 ft | 189 kts | 254° |
| 2026-05-06 17:49 | 38.62502 | -86.10470 | 8478 ft | 189 kts | 254° |
| 2026-05-06 17:50 | 38.62145 | -86.12088 | 8481 ft | 189 kts | 254° |
| 2026-05-06 17:50 | 38.61791 | -86.13696 | 8480 ft | 188 kts | 254° |
| 2026-05-06 17:50 | 38.61437 | -86.15298 | 8478 ft | 187 kts | 254° |
| 2026-05-06 17:50 | 38.61083 | -86.16896 | 8479 ft | 187 kts | 254° |
| 2026-05-06 17:51 | 38.60729 | -86.18495 | 8490 ft | 187 kts | 254° |
| 2026-05-06 17:51 | 38.60376 | -86.20091 | 8488 ft | 186 kts | 254° |
| 2026-05-06 17:51 | 38.60022 | -86.21688 | 8488 ft | 187 kts | 254° |
| 2026-05-06 17:51 | 38.59668 | -86.23284 | 8484 ft | 187 kts | 254° |
| 2026-05-06 17:52 | 38.59315 | -86.24877 | 8477 ft | 186 kts | 254° |
| 2026-05-06 17:52 | 38.58965 | -86.26455 | 8475 ft | 183 kts | 254° |
| 2026-05-06 17:52 | 38.58618 | -86.28017 | 8478 ft | 182 kts | 253° |
| 2026-05-06 17:52 | 38.58271 | -86.29573 | 8475 ft | 181 kts | 254° |
| 2026-05-06 17:53 | 38.57930 | -86.31107 | 8420 ft | 170 kts | 253° |
| 2026-05-06 17:53 | 38.57634 | -86.32426 | 8243 ft | 143 kts | 253° |
| 2026-05-06 17:53 | 38.57373 | -86.33583 | 8061 ft | 130 kts | 253° |
| 2026-05-06 17:53 | 38.57131 | -86.34662 | 7846 ft | 125 kts | 253° |
| 2026-05-06 17:54 | 38.56889 | -86.35748 | 7571 ft | 127 kts | 253° |
| 2026-05-06 17:54 | 38.56647 | -86.36839 | 7320 ft | 128 kts | 253° |
| 2026-05-06 17:54 | 38.56401 | -86.37941 | 7071 ft | 129 kts | 253° |
| 2026-05-06 17:54 | 38.56154 | -86.39050 | 6829 ft | 131 kts | 253° |
| 2026-05-06 17:55 | 38.55905 | -86.40163 | 6591 ft | 133 kts | 253° |
| 2026-05-06 17:55 | 38.55646 | -86.41322 | 6342 ft | 135 kts | 253° |
| 2026-05-06 17:55 | 38.55387 | -86.42479 | 6083 ft | 137 kts | 253° |
| 2026-05-06 17:55 | 38.55128 | -86.43636 | 5827 ft | 138 kts | 254° |
| 2026-05-06 17:56 | 38.54863 | -86.44820 | 5575 ft | 140 kts | 254° |
| 2026-05-06 17:56 | 38.54594 | -86.46021 | 5323 ft | 141 kts | 255° |
| 2026-05-06 17:56 | 38.54321 | -86.47239 | 5075 ft | 143 kts | 256° |
| 2026-05-06 17:56 | 38.54046 | -86.48466 | 4819 ft | 145 kts | 256° |
| 2026-05-06 17:57 | 38.53766 | -86.49713 | 4568 ft | 146 kts | 258° |
| 2026-05-06 17:57 | 38.53477 | -86.50960 | 4308 ft | 147 kts | 252° |
| 2026-05-06 17:57 | 38.53052 | -86.52168 | 4008 ft | 151 kts | 247° |
| 2026-05-06 17:57 | 38.52593 | -86.53382 | 3651 ft | 152 kts | 250° |
| 2026-05-06 17:58 | 38.52192 | -86.54577 | 3284 ft | 137 kts | 255° |
| 2026-05-06 17:58 | 38.51940 | -86.55686 | 2886 ft | 124 kts | 260° |
| 2026-05-06 17:58 | 38.51734 | -86.56716 | 2493 ft | 116 kts | 262° |
| 2026-05-06 17:58 | 38.51579 | -86.57679 | 2111 ft | 106 kts | 263° |
| 2026-05-06 17:59 | 38.51434 | -86.58617 | 1829 ft | 112 kts | 269° |
| 2026-05-06 17:59 | 38.51370 | -86.59627 | 1557 ft | 110 kts | 269° |
| 2026-05-06 17:59 | 38.51234 | -86.60497 | 1355 ft | 93 kts | 258° |
| 2026-05-06 17:59 | 38.51074 | -86.61293 | 1208 ft | 93 kts | 259° |
| 2026-05-06 18:00 | 38.50931 | -86.62026 | 1038 ft | 84 kts | 260° |
| 2026-05-06 18:00 | 38.50812 | -86.62758 | 825 ft | 83 kts | 259° |
| 2026-05-06 18:00 | 38.50690 | -86.63376 | 796 ft | 58 kts | 256° |
| 2026-05-06 18:00 | 38.50642 | -86.63575 | 797 ft | 7 kts | 134° |
| 2026-05-06 18:01 | 38.50649 | -86.63518 | 800 ft | 7 kts | 76° |
| 2026-05-06 18:01 | 38.50661 | -86.63454 | 800 ft | 8 kts | 76° |
| 2026-05-06 18:01 | 38.50674 | -86.63386 | 796 ft | 8 kts | 76° |
| 2026-05-06 18:01 | 38.50687 | -86.63322 | 796 ft | 7 kts | 76° |
| 2026-05-06 18:02 | 38.50697 | -86.63270 | 802 ft | 5 kts | 75° |
| 2026-05-06 18:02 | 38.50705 | -86.63232 | 802 ft | 4 kts | 75° |
| 2026-05-06 18:02 | 38.50711 | -86.63203 | 804 ft | 3 kts | 75° |
| 2026-05-06 18:02 | 38.50718 | -86.63181 | 791 ft | 4 kts | 22° |
| 2026-05-06 18:03 | 38.50720 | -86.63206 | 797 ft | 0 kts | 257° |
| 2026-05-06 18:03 | 38.50634 | -86.63638 | 820 ft | 96 kts | 256° |
| 2026-05-06 18:03 | 38.50420 | -86.64649 | 1106 ft | 132 kts | 257° |
| 2026-05-06 18:04 | 38.50290 | -86.65659 | 2141 ft | 102 kts | 266° |
| 2026-05-06 18:04 | 38.50136 | -86.66600 | 2795 ft | 123 kts | 265° |
| 2026-05-06 18:04 | 38.49979 | -86.67831 | 3121 ft | 154 kts | 265° |
| 2026-05-06 18:04 | 38.49685 | -86.69225 | 3431 ft | 168 kts | 265° |
| 2026-05-06 18:05 | 38.49884 | -86.70695 | 3737 ft | 172 kts | 289° |
| 2026-05-06 18:05 | 38.50078 | -86.72208 | 4018 ft | 179 kts | 275° |
| 2026-05-06 18:05 | 38.50105 | -86.73806 | 4297 ft | 181 kts | 273° |
| 2026-05-06 18:05 | 38.50133 | -86.75420 | 4567 ft | 182 kts | 274° |
| 2026-05-06 18:06 | 38.50146 | -86.77039 | 4835 ft | 183 kts | 273° |
| 2026-05-06 18:06 | 38.50106 | -86.78659 | 5087 ft | 184 kts | 258° |
| 2026-05-06 18:06 | 38.49376 | -86.79986 | 5342 ft | 188 kts | 221° |
| 2026-05-06 18:06 | 38.48330 | -86.80975 | 5605 ft | 186 kts | 219° |
| 2026-05-06 18:07 | 38.47284 | -86.81940 | 5867 ft | 185 kts | 218° |
| 2026-05-06 18:07 | 38.46247 | -86.82904 | 6129 ft | 184 kts | 219° |
| 2026-05-06 18:07 | 38.45213 | -86.83858 | 6390 ft | 183 kts | 219° |
| 2026-05-06 18:07 | 38.44181 | -86.84801 | 6632 ft | 182 kts | 219° |
| 2026-05-06 18:08 | 38.43157 | -86.85731 | 6873 ft | 180 kts | 219° |
| 2026-05-06 18:08 | 38.42118 | -86.86655 | 6887 ft | 189 kts | 219° |
| 2026-05-06 18:08 | 38.41023 | -86.87644 | 6651 ft | 196 kts | 219° |
| 2026-05-06 18:08 | 38.39895 | -86.88627 | 6511 ft | 196 kts | 210° |
| 2026-05-06 18:09 | 38.38600 | -86.89135 | 6512 ft | 195 kts | 197° |
| 2026-05-06 18:09 | 38.37282 | -86.89600 | 6507 ft | 198 kts | 204° |
| 2026-05-06 18:09 | 38.36035 | -86.90349 | 6511 ft | 198 kts | 213° |
| 2026-05-06 18:09 | 38.34920 | -86.91370 | 6508 ft | 197 kts | 223° |
| 2026-05-06 18:10 | 38.34011 | -86.92669 | 6511 ft | 196 kts | 236° |
| 2026-05-06 18:10 | 38.33280 | -86.94143 | 6508 ft | 197 kts | 240° |
| 2026-05-06 18:10 | 38.32572 | -86.95640 | 6507 ft | 198 kts | 240° |
| 2026-05-06 18:10 | 38.31842 | -86.97134 | 6508 ft | 199 kts | 239° |
| 2026-05-06 18:11 | 38.31102 | -86.98625 | 6510 ft | 200 kts | 239° |
| 2026-05-06 18:11 | 38.30611 | -86.99617 | 6509 ft | 200 kts | 239° |
| 2026-05-06 18:11 | 38.29620 | -87.01620 | 6508 ft | 200 kts | 239° |
| 2026-05-06 18:11 | 38.28879 | -87.03116 | 6507 ft | 200 kts | 239° |
| 2026-05-06 18:12 | 38.28138 | -87.04614 | 6508 ft | 200 kts | 239° |
| 2026-05-06 18:12 | 38.27396 | -87.06114 | 6509 ft | 201 kts | 239° |
| 2026-05-06 18:12 | 38.26661 | -87.07599 | 6509 ft | 200 kts | 239° |
| 2026-05-06 18:12 | 38.25918 | -87.09099 | 6508 ft | 201 kts | 239° |
| 2026-05-06 18:13 | 38.25173 | -87.10600 | 6507 ft | 200 kts | 239° |
| 2026-05-06 18:13 | 38.24431 | -87.12096 | 6507 ft | 200 kts | 239° |
| 2026-05-06 18:13 | 38.23690 | -87.13588 | 6507 ft | 199 kts | 239° |
| 2026-05-06 18:13 | 38.22950 | -87.15078 | 6508 ft | 199 kts | 239° |
| 2026-05-06 18:14 | 38.22211 | -87.16566 | 6508 ft | 199 kts | 239° |
| 2026-05-06 18:14 | 38.21471 | -87.18056 | 6507 ft | 199 kts | 239° |
| 2026-05-06 18:14 | 38.20730 | -87.19545 | 6513 ft | 199 kts | 239° |
| 2026-05-06 18:14 | 38.19989 | -87.21033 | 6515 ft | 200 kts | 239° |
| 2026-05-06 18:15 | 38.19248 | -87.22525 | 6514 ft | 199 kts | 239° |
| 2026-05-06 18:15 | 38.18507 | -87.24013 | 6515 ft | 200 kts | 239° |
| 2026-05-06 18:15 | 38.17764 | -87.25505 | 6505 ft | 200 kts | 239° |
| 2026-05-06 18:15 | 38.17062 | -87.26908 | 6283 ft | 179 kts | 239° |
| 2026-05-06 18:16 | 38.16415 | -87.28203 | 6059 ft | 170 kts | 239° |
| 2026-05-06 18:16 | 38.15791 | -87.29455 | 5827 ft | 165 kts | 240° |
| 2026-05-06 18:16 | 38.15183 | -87.30675 | 5614 ft | 162 kts | 240° |
| 2026-05-06 18:16 | 38.14582 | -87.31879 | 5404 ft | 161 kts | 240° |
| 2026-05-06 18:17 | 38.13982 | -87.33082 | 5188 ft | 162 kts | 240° |
| 2026-05-06 18:17 | 38.13370 | -87.34308 | 4987 ft | 166 kts | 240° |
| 2026-05-06 18:17 | 38.12747 | -87.35554 | 4784 ft | 169 kts | 241° |
| 2026-05-06 18:17 | 38.12330 | -87.36391 | 4644 ft | 169 kts | 242° |
| 2026-05-06 18:18 | 38.11698 | -87.37652 | 4439 ft | 170 kts | 242° |
| 2026-05-06 18:18 | 38.11062 | -87.38924 | 4231 ft | 171 kts | 240° |
| 2026-05-06 18:18 | 38.10424 | -87.40201 | 4029 ft | 172 kts | 240° |
| 2026-05-06 18:18 | 38.09783 | -87.41481 | 3825 ft | 171 kts | 240° |
| 2026-05-06 18:19 | 38.09140 | -87.42755 | 3620 ft | 172 kts | 240° |
| 2026-05-06 18:19 | 38.08502 | -87.44020 | 3418 ft | 165 kts | 242° |
| 2026-05-06 18:19 | 38.07941 | -87.45200 | 3188 ft | 148 kts | 250° |
| 2026-05-06 18:19 | 38.07630 | -87.46364 | 2966 ft | 132 kts | 257° |
| 2026-05-06 18:20 | 38.07318 | -87.47421 | 2698 ft | 119 kts | 249° |
| 2026-05-06 18:20 | 38.06991 | -87.48254 | 2338 ft | 100 kts | 245° |
| 2026-05-06 18:20 | 38.06659 | -87.49018 | 1893 ft | 98 kts | 245° |
| 2026-05-06 18:20 | 38.06307 | -87.49741 | 1480 ft | 93 kts | 242° |
| 2026-05-06 18:21 | 38.05966 | -87.50432 | 1042 ft | 90 kts | 245° |
| 2026-05-06 18:21 | 38.05578 | -87.51078 | 651 ft | 94 kts | 234° |
| 2026-05-06 18:21 | 38.05092 | -87.51587 | 406 ft | 80 kts | 219° |
| 2026-05-06 18:21 | 38.04725 | -87.51952 | 395 ft | 57 kts | 218° |
| 2026-05-06 18:22 | 38.04589 | -87.52082 | 390 ft | 0 kts | 213° |